Blanc Sablon, Canada
Current Conditions -  °F | °C
As of 3:00 PM on Thursday 27 Nov 2014 (Local Time) from CYBX Reporting Station
Light Snow Light Snow  
Wind Chill:   Ceiling: 1200
Heat Index: 21°   Visibility: 1.2mi
Dew Point: 18°   Wind: 31mph
Humidity: 86%   Direction: 40°NE
Pressure: 29.64"   Gusts: 39mph
Location:  51.43°N, 57.14°W
Report Text: CYBX 271900Z 04027G34KT 1 1/4SM -SN BLSN OVC012 M06/M08 A2964 RMK SN4SC4 SLP040
Loading
Personal Weather Stations






























Interactive Weather Map New forecast layout! Learn more

10-Day Weather Forecast

Advertisements
Track Severe Weather on mobile